createdAt,value
2023-01-25T00:01:30.796Z,100.00
2023-01-25T00:03:43.430Z,100.00
2023-01-25T00:06:01.103Z,100.00
2023-01-25T00:08:13.770Z,100.00
2023-01-25T00:10:26.401Z,100.00
2023-01-25T00:12:41.401Z,100.00
2023-01-25T00:14:53.941Z,100.00
2023-01-25T00:17:06.602Z,100.00
2023-01-25T00:19:19.418Z,100.00
2023-01-25T00:21:32.476Z,100.00
2023-01-25T00:23:45.125Z,100.00
2023-01-25T00:25:58.973Z,100.00
2023-01-25T00:28:11.811Z,100.00
2023-01-25T00:30:24.361Z,100.00
2023-01-25T00:32:47.300Z,100.00
2023-01-25T00:34:59.985Z,100.00
2023-01-25T00:37:30.502Z,100.00
2023-01-25T00:39:43.081Z,100.00
2023-01-25T00:41:55.792Z,100.00
2023-01-25T00:44:08.455Z,100.00
2023-01-25T00:46:21.193Z,100.00
2023-01-25T00:48:33.870Z,100.00
2023-01-25T00:50:46.372Z,100.00
2023-01-25T00:52:58.940Z,100.00
2023-01-25T00:55:11.478Z,100.00
2023-01-25T00:57:24.034Z,100.00
2023-01-25T00:59:36.724Z,100.00
2023-01-25T01:01:50.291Z,100.00
2023-01-25T01:04:04.484Z,100.00
2023-01-25T01:06:18.687Z,100.00
2023-01-25T01:08:34.132Z,100.00
2023-01-25T01:10:46.682Z,100.00
2023-01-25T01:12:59.289Z,100.00
2023-01-25T01:15:11.828Z,100.00
2023-01-25T01:17:24.765Z,100.00
2023-01-25T01:19:37.362Z,100.00
2023-01-25T01:21:50.115Z,100.00
2023-01-25T01:24:02.808Z,100.00
2023-01-25T01:26:19.505Z,100.00
2023-01-25T01:28:33.841Z,100.00
2023-01-25T01:30:46.419Z,100.00
2023-01-25T01:32:59.278Z,100.00
2023-01-25T01:35:11.858Z,100.00
2023-01-25T01:37:24.417Z,100.00
2023-01-25T01:39:37.053Z,100.00
2023-01-25T01:41:49.757Z,100.00
2023-01-25T01:44:02.847Z,100.00
2023-01-25T01:46:32.707Z,100.00
2023-01-25T01:48:51.281Z,100.00
2023-01-25T01:51:14.525Z,100.00
2023-01-25T01:53:29.451Z,100.00
2023-01-25T01:55:42.825Z,100.00
2023-01-25T01:57:58.506Z,100.00
2023-01-25T02:00:18.477Z,100.00
2023-01-25T02:02:31.247Z,100.00
2023-01-25T02:04:48.663Z,100.00
2023-01-25T02:07:11.653Z,100.00
2023-01-25T02:09:28.490Z,100.00
2023-01-25T02:11:41.822Z,100.00
2023-01-25T02:13:55.876Z,100.00
2023-01-25T02:16:15.775Z,100.00
2023-01-25T02:18:29.194Z,100.00
2023-01-25T02:20:44.778Z,100.00
2023-01-25T02:23:28.785Z,100.00
2023-01-25T02:25:41.596Z,100.00
2023-01-25T02:28:01.226Z,100.00
2023-01-25T02:30:13.999Z,100.00
2023-01-25T02:32:26.560Z,100.00
2023-01-25T02:34:39.087Z,100.00
2023-01-25T02:36:51.775Z,100.00
2023-01-25T02:39:08.709Z,100.00
2023-01-25T02:41:33.113Z,100.00
2023-01-25T02:43:45.682Z,100.00
2023-01-25T02:46:14.556Z,100.00
2023-01-25T02:48:27.163Z,100.00
2023-01-25T02:50:39.731Z,100.00
2023-01-25T02:52:52.264Z,100.00
2023-01-25T02:55:05.808Z,100.00
2023-01-25T02:57:18.619Z,100.00
2023-01-25T02:59:31.146Z,100.00
2023-01-25T03:01:44.008Z,100.00
2023-01-25T03:03:56.708Z,100.00
2023-01-25T03:06:09.527Z,100.00
2023-01-25T03:08:22.064Z,100.00
2023-01-25T03:10:34.642Z,100.00
2023-01-25T03:12:47.177Z,100.00
2023-01-25T03:14:59.690Z,100.00
2023-01-25T03:17:12.687Z,100.00
2023-01-25T03:19:25.327Z,100.00
2023-01-25T03:21:40.975Z,100.00
2023-01-25T03:23:59.503Z,100.00
2023-01-25T03:26:20.672Z,100.00
2023-01-25T03:28:33.276Z,100.00
2023-01-25T03:30:49.951Z,100.00
2023-01-25T03:33:02.627Z,100.00
2023-01-25T03:35:15.200Z,100.00
2023-01-25T03:37:30.359Z,100.00
2023-01-25T03:39:42.915Z,100.00
2023-01-25T03:41:55.449Z,100.00
2023-01-25T03:44:11.405Z,100.00
2023-01-25T03:46:23.962Z,100.00
2023-01-25T03:48:36.491Z,100.00
2023-01-25T03:50:53.954Z,100.00
2023-01-25T03:53:10.250Z,100.00
2023-01-25T03:55:22.782Z,100.00
2023-01-25T03:57:35.362Z,100.00
2023-01-25T03:59:47.854Z,100.00
2023-01-25T04:02:00.485Z,100.00
2023-01-25T04:04:13.067Z,100.00
2023-01-25T04:06:25.623Z,100.00
2023-01-25T04:08:38.218Z,100.00
2023-01-25T04:10:55.250Z,100.00
2023-01-25T04:13:07.849Z,100.00
2023-01-25T04:15:20.567Z,100.00
2023-01-25T04:17:33.177Z,100.00
2023-01-25T04:19:45.726Z,100.00
2023-01-25T04:21:58.259Z,100.00
2023-01-25T04:24:10.854Z,100.00
2023-01-25T04:26:23.624Z,100.00
2023-01-25T04:28:36.367Z,100.00
2023-01-25T04:30:49.104Z,100.00
2023-01-25T04:33:05.316Z,100.00
2023-01-25T04:35:20.373Z,100.00
2023-01-25T04:37:32.889Z,100.00
2023-01-25T04:39:45.567Z,100.00
2023-01-25T04:41:58.140Z,100.00
2023-01-25T04:44:10.912Z,100.00
2023-01-25T04:46:23.503Z,100.00
2023-01-25T04:48:36.132Z,100.00
2023-01-25T04:50:48.742Z,100.00
2023-01-25T04:53:01.332Z,100.00
2023-01-25T04:55:14.205Z,100.00
2023-01-25T04:57:26.756Z,100.00
2023-01-25T04:59:39.332Z,100.00
2023-01-25T05:01:51.855Z,100.00
2023-01-25T05:04:04.382Z,100.00
2023-01-25T05:06:17.070Z,100.00
2023-01-25T05:08:29.610Z,100.00
2023-01-25T05:10:42.111Z,100.00
2023-01-25T05:12:54.679Z,100.00
2023-01-25T05:15:08.158Z,100.00
2023-01-25T05:17:21.008Z,100.00
2023-01-25T05:19:34.318Z,100.00
2023-01-25T05:22:07.300Z,100.00
2023-01-25T05:24:19.952Z,100.00
2023-01-25T05:26:51.428Z,100.00
2023-01-25T05:29:04.050Z,100.00
2023-01-25T05:31:16.688Z,100.00
2023-01-25T05:33:29.638Z,100.00
2023-01-25T05:35:43.469Z,100.00
2023-01-25T05:38:00.123Z,100.00
2023-01-25T05:40:13.040Z,100.00
2023-01-25T05:42:25.668Z,100.00
2023-01-25T05:44:38.719Z,100.00
2023-01-25T05:46:51.545Z,100.00
2023-01-25T05:49:04.514Z,100.00
2023-01-25T05:51:17.089Z,100.00
2023-01-25T05:53:29.689Z,100.00
2023-01-25T05:55:42.316Z,100.00
2023-01-25T05:57:56.946Z,100.00
2023-01-25T06:00:10.887Z,100.00
2023-01-25T06:02:23.548Z,100.00
2023-01-25T06:04:36.253Z,100.00
2023-01-25T06:06:49.967Z,100.00
2023-01-25T06:09:02.699Z,100.00
2023-01-25T06:11:19.249Z,100.00
2023-01-25T06:13:31.819Z,100.00
2023-01-25T06:15:54.082Z,100.00
2023-01-25T06:18:06.651Z,100.00
2023-01-25T06:20:19.187Z,100.00
2023-01-25T06:22:31.737Z,100.00
2023-01-25T06:24:44.368Z,100.00
2023-01-25T06:26:56.940Z,100.00
2023-01-25T06:29:09.725Z,100.00
2023-01-25T06:31:22.363Z,100.00
2023-01-25T06:33:35.299Z,100.00
2023-01-25T06:35:47.901Z,100.00
2023-01-25T06:38:01.299Z,100.00
2023-01-25T06:40:13.995Z,100.00
2023-01-25T06:42:26.598Z,100.00
2023-01-25T06:44:39.258Z,100.00
2023-01-25T06:46:51.949Z,100.00
2023-01-25T06:49:04.556Z,100.00
2023-01-25T06:51:17.425Z,100.00
2023-01-25T06:53:32.274Z,100.00
2023-01-25T06:55:44.848Z,100.00
2023-01-25T06:58:00.179Z,100.00
2023-01-25T07:00:13.684Z,100.00
2023-01-25T07:02:26.315Z,100.00
2023-01-25T07:04:38.945Z,100.00
2023-01-25T07:06:51.611Z,100.00
2023-01-25T07:09:06.534Z,100.00
2023-01-25T07:11:19.708Z,100.00
2023-01-25T07:13:35.959Z,100.00
2023-01-25T07:15:56.231Z,100.00
2023-01-25T07:18:16.262Z,100.00
2023-01-25T07:20:29.313Z,100.00
2023-01-25T07:22:42.005Z,100.00
2023-01-25T07:24:57.842Z,100.00
2023-01-25T07:27:10.381Z,100.00
2023-01-25T07:29:23.123Z,100.00
2023-01-25T07:31:35.728Z,100.00
2023-01-25T07:33:50.143Z,100.00
2023-01-25T07:36:05.631Z,100.00
2023-01-25T07:38:18.157Z,100.00
2023-01-25T07:40:30.953Z,100.00
2023-01-25T07:42:43.780Z,100.00
2023-01-25T07:44:56.376Z,100.00
2023-01-25T07:47:08.933Z,100.00
2023-01-25T07:49:21.539Z,100.00
2023-01-25T07:51:34.305Z,100.00
2023-01-25T07:53:47.610Z,100.00
2023-01-25T07:56:00.158Z,100.00
2023-01-25T07:58:12.800Z,100.00
2023-01-25T08:00:25.310Z,100.00
2023-01-25T08:02:37.877Z,100.00
2023-01-25T08:04:51.454Z,100.00
2023-01-25T08:07:04.110Z,100.00
2023-01-25T08:09:20.063Z,100.00
2023-01-25T08:11:32.870Z,100.00
2023-01-25T08:13:49.739Z,100.00
2023-01-25T08:16:02.501Z,100.00
2023-01-25T08:18:15.079Z,100.00
2023-01-25T08:20:27.675Z,100.00
2023-01-25T08:22:40.225Z,100.00
2023-01-25T08:24:52.828Z,100.00
2023-01-25T08:27:05.349Z,100.00
2023-01-25T08:29:18.256Z,100.00
2023-01-25T08:31:33.114Z,100.00
2023-01-25T08:33:46.873Z,100.00
2023-01-25T08:35:59.587Z,100.00
2023-01-25T08:38:12.085Z,100.00
2023-01-25T08:40:24.881Z,100.00
2023-01-25T08:42:37.432Z,100.00
2023-01-25T08:44:50.059Z,100.00
2023-01-25T08:47:02.711Z,100.00
2023-01-25T08:49:15.838Z,100.00
2023-01-25T08:51:29.705Z,100.00
2023-01-25T08:53:43.031Z,100.00
2023-01-25T08:55:55.863Z,100.00
2023-01-25T08:58:13.185Z,100.00
2023-01-25T09:00:25.871Z,100.00
2023-01-25T09:02:38.473Z,100.00
2023-01-25T09:04:51.054Z,100.00
2023-01-25T09:07:04.104Z,100.00
2023-01-25T09:09:16.695Z,100.00
2023-01-25T09:11:29.273Z,100.00
2023-01-25T09:13:45.188Z,100.00
2023-01-25T09:16:02.541Z,100.00
2023-01-25T09:18:15.491Z,100.00
2023-01-25T09:20:28.726Z,100.00
2023-01-25T09:22:42.013Z,100.00
2023-01-25T09:24:56.425Z,100.00
2023-01-25T09:27:11.939Z,100.00
2023-01-25T09:29:24.617Z,100.00
2023-01-25T09:31:40.909Z,100.00
2023-01-25T09:33:53.688Z,100.00
2023-01-25T09:36:07.401Z,100.00
2023-01-25T09:38:21.276Z,100.00
2023-01-25T09:40:39.311Z,100.00
2023-01-25T09:43:04.665Z,100.00
2023-01-25T09:45:32.189Z,100.00
2023-01-25T09:48:20.542Z,100.00
2023-01-25T09:50:38.317Z,100.00
2023-01-25T09:53:19.671Z,100.00
2023-01-25T09:55:33.194Z,100.00
2023-01-25T09:57:48.184Z,100.00
2023-01-25T10:00:09.625Z,100.00
2023-01-25T10:02:39.628Z,100.00
2023-01-25T10:04:57.305Z,100.00
2023-01-25T10:07:28.053Z,100.00
2023-01-25T10:09:49.597Z,100.00
2023-01-25T10:12:12.128Z,100.00
2023-01-25T10:14:24.785Z,100.00
2023-01-25T10:16:49.982Z,100.00
2023-01-25T10:19:27.115Z,100.00
2023-01-25T10:21:47.111Z,100.00
2023-01-25T10:24:21.919Z,100.00
2023-01-25T10:26:36.467Z,100.00
2023-01-25T10:29:07.676Z,100.00
2023-01-25T10:31:35.371Z,99.92
2023-01-25T10:33:49.137Z,99.82
2023-01-25T10:36:04.495Z,99.47
2023-01-25T10:38:21.600Z,99.27
2023-01-25T10:40:49.116Z,99.09
2023-01-25T10:43:12.182Z,98.80
2023-01-25T10:45:27.033Z,98.45
2023-01-25T10:47:44.028Z,98.54
2023-01-25T10:49:59.808Z,98.44
2023-01-25T10:52:13.867Z,98.27
2023-01-25T10:54:27.781Z,98.48
2023-01-25T10:56:43.754Z,98.33
2023-01-25T10:59:09.043Z,98.46
2023-01-25T11:01:28.532Z,98.28
2023-01-25T11:03:44.799Z,98.31
2023-01-25T11:05:57.563Z,98.35
2023-01-25T11:08:26.029Z,98.21
2023-01-25T11:10:45.817Z,98.12
2023-01-25T11:13:13.796Z,97.98
2023-01-25T11:15:26.587Z,97.92
2023-01-25T11:17:39.244Z,97.79
2023-01-25T11:20:07.767Z,97.92
2023-01-25T11:22:20.523Z,98.28
2023-01-25T11:24:35.844Z,98.45
2023-01-25T11:26:48.500Z,98.54
2023-01-25T11:29:19.098Z,98.52
2023-01-25T11:31:31.763Z,98.49
2023-01-25T11:33:44.490Z,98.12
2023-01-25T11:36:15.817Z,97.94
2023-01-25T11:38:28.974Z,97.63
2023-01-25T11:40:59.818Z,97.26
2023-01-25T11:43:31.081Z,97.20
2023-01-25T11:46:02.655Z,97.13
2023-01-25T11:48:21.824Z,96.97
2023-01-25T11:50:47.071Z,96.81
2023-01-25T11:53:30.455Z,96.71
2023-01-25T11:56:18.559Z,96.51
2023-01-25T11:58:50.190Z,96.45
2023-01-25T12:01:09.026Z,96.27
2023-01-25T12:03:55.415Z,96.39
2023-01-25T12:06:55.191Z,96.24
2023-01-25T12:09:27.130Z,96.21
2023-01-25T12:11:54.886Z,95.90
2023-01-25T12:14:58.932Z,95.79
2023-01-25T12:17:30.143Z,95.82
2023-01-25T12:19:57.461Z,95.69
2023-01-25T12:22:31.628Z,95.56
2023-01-25T12:25:06.200Z,95.46
2023-01-25T12:27:40.535Z,95.37
2023-01-25T12:30:21.373Z,95.27
2023-01-25T12:32:40.481Z,95.19
2023-01-25T12:35:24.496Z,95.18
2023-01-25T12:37:41.465Z,95.00
2023-01-25T12:40:08.792Z,94.91
2023-01-25T12:42:26.443Z,94.90
2023-01-25T12:44:44.968Z,94.87
2023-01-25T12:47:05.679Z,94.80
2023-01-25T12:49:34.389Z,94.70
2023-01-25T12:51:48.467Z,94.70
2023-01-25T12:54:10.480Z,94.54
2023-01-25T12:56:49.005Z,94.53
2023-01-25T12:59:21.389Z,94.67
2023-01-25T13:01:43.093Z,94.74
2023-01-25T13:04:15.160Z,94.66
2023-01-25T13:06:39.062Z,94.64
2023-01-25T13:08:54.946Z,94.37
2023-01-25T13:11:18.237Z,94.40
2023-01-25T13:13:31.392Z,94.41
2023-01-25T13:15:45.660Z,94.39
2023-01-25T13:17:58.305Z,94.33
2023-01-25T13:20:40.121Z,94.09
2023-01-25T13:22:58.350Z,94.01
2023-01-25T13:25:16.909Z,94.03
2023-01-25T13:27:32.132Z,94.01
2023-01-25T13:29:47.924Z,94.09
2023-01-25T13:32:01.848Z,93.90
2023-01-25T13:34:36.219Z,94.10
2023-01-25T13:36:53.543Z,94.43
2023-01-25T13:39:24.821Z,94.42
2023-01-25T13:41:58.391Z,94.30
2023-01-25T13:44:31.563Z,94.47
2023-01-25T13:46:44.365Z,94.54
2023-01-25T13:49:02.768Z,94.56
2023-01-25T13:51:18.352Z,94.73
2023-01-25T13:53:35.179Z,94.60
2023-01-25T13:55:53.946Z,94.61
2023-01-25T13:58:26.625Z,94.62
2023-01-25T14:00:48.235Z,94.59
2023-01-25T14:03:01.028Z,94.66
2023-01-25T14:05:22.066Z,94.49
2023-01-25T14:07:36.936Z,94.68
2023-01-25T14:09:50.158Z,94.50
2023-01-25T14:12:04.264Z,94.47
2023-01-25T14:14:28.711Z,94.48
2023-01-25T14:16:41.358Z,94.66
2023-01-25T14:18:54.273Z,94.61
2023-01-25T14:21:17.378Z,94.52
2023-01-25T14:23:30.543Z,94.52
2023-01-25T14:25:43.123Z,94.53
2023-01-25T14:27:59.070Z,94.50
2023-01-25T14:30:22.690Z,94.50
2023-01-25T14:32:36.924Z,94.61
2023-01-25T14:34:49.462Z,94.72
2023-01-25T14:37:17.769Z,94.66
2023-01-25T14:39:30.332Z,94.68
2023-01-25T14:41:51.647Z,94.77
2023-01-25T14:44:15.042Z,94.79
2023-01-25T14:46:31.881Z,94.73
2023-01-25T14:48:45.055Z,94.85
2023-01-25T14:51:09.839Z,94.70
2023-01-25T14:53:25.088Z,94.90
2023-01-25T14:55:37.688Z,94.88
2023-01-25T14:57:50.644Z,94.86
2023-01-25T15:00:22.628Z,95.08
2023-01-25T15:02:44.674Z,95.09
2023-01-25T15:05:14.495Z,95.20
2023-01-25T15:07:42.510Z,95.30
2023-01-25T15:10:22.198Z,95.16
2023-01-25T15:12:34.703Z,95.32
2023-01-25T15:14:50.277Z,95.47
2023-01-25T15:17:02.818Z,95.60
2023-01-25T15:19:29.895Z,95.47
2023-01-25T15:21:42.803Z,95.58
2023-01-25T15:23:57.861Z,95.65
2023-01-25T15:26:30.423Z,95.59
2023-01-25T15:28:42.983Z,95.84
2023-01-25T15:30:58.218Z,95.71
2023-01-25T15:33:19.310Z,95.86
2023-01-25T15:35:32.493Z,95.70
2023-01-25T15:37:49.098Z,95.75
2023-01-25T15:40:01.995Z,95.80
2023-01-25T15:42:14.669Z,95.81
2023-01-25T15:44:27.202Z,95.80
2023-01-25T15:46:42.473Z,95.80
2023-01-25T15:48:55.431Z,95.75
2023-01-25T15:51:08.932Z,95.81
2023-01-25T15:53:21.466Z,95.81
2023-01-25T15:55:34.348Z,95.86
2023-01-25T15:57:47.129Z,95.83
2023-01-25T16:00:02.316Z,95.77
2023-01-25T16:02:15.286Z,95.76
2023-01-25T16:04:28.015Z,95.94
2023-01-25T16:06:47.169Z,95.82
2023-01-25T16:09:00.398Z,95.94
2023-01-25T16:11:12.998Z,96.19
2023-01-25T16:13:25.764Z,95.85
2023-01-25T16:15:39.664Z,95.80
2023-01-25T16:17:52.214Z,95.85
2023-01-25T16:20:05.375Z,96.05
2023-01-25T16:22:18.399Z,96.11
2023-01-25T16:24:31.036Z,96.12
2023-01-25T16:26:50.997Z,96.25
2023-01-25T16:29:03.632Z,96.12
2023-01-25T16:31:31.207Z,96.21
2023-01-25T16:33:44.992Z,96.23
2023-01-25T16:36:12.608Z,96.24
2023-01-25T16:38:25.232Z,96.24
2023-01-25T16:40:39.653Z,96.13
2023-01-25T16:42:52.721Z,96.39
2023-01-25T16:45:05.944Z,96.22
2023-01-25T16:47:18.525Z,96.18
2023-01-25T16:49:32.892Z,96.45
2023-01-25T16:51:45.645Z,96.53
2023-01-25T16:53:58.615Z,96.41
2023-01-25T16:56:19.812Z,96.46
2023-01-25T16:58:32.361Z,96.28
2023-01-25T17:00:46.170Z,96.40
2023-01-25T17:02:59.799Z,96.43
2023-01-25T17:05:12.620Z,96.55
2023-01-25T17:07:25.171Z,96.67
2023-01-25T17:09:39.951Z,96.41
2023-01-25T17:11:54.356Z,96.28
2023-01-25T17:14:08.372Z,96.26
2023-01-25T17:16:22.866Z,96.46
2023-01-25T17:18:35.432Z,96.43
2023-01-25T17:21:06.843Z,96.56
2023-01-25T17:23:19.397Z,96.63
2023-01-25T17:25:35.472Z,96.63
2023-01-25T17:27:48.014Z,96.46
2023-01-25T17:30:00.730Z,96.44
2023-01-25T17:32:13.214Z,96.36
2023-01-25T17:34:25.737Z,96.49
2023-01-25T17:36:38.297Z,96.79
2023-01-25T17:38:50.887Z,96.98
2023-01-25T17:41:08.473Z,96.95
2023-01-25T17:43:21.201Z,96.96
2023-01-25T17:45:38.433Z,97.14
2023-01-25T17:47:51.014Z,97.09
2023-01-25T17:50:03.976Z,97.08
2023-01-25T17:52:16.544Z,97.50
2023-01-25T17:54:29.066Z,97.42
2023-01-25T17:56:41.888Z,97.34
2023-01-25T17:58:55.112Z,97.42
2023-01-25T18:01:16.158Z,97.62
2023-01-25T18:03:29.633Z,97.69
2023-01-25T18:05:44.671Z,97.63
2023-01-25T18:07:57.288Z,97.51
2023-01-25T18:10:11.176Z,97.92
2023-01-25T18:12:24.318Z,97.83
2023-01-25T18:14:36.969Z,97.99
2023-01-25T18:16:51.582Z,98.04
2023-01-25T18:19:04.903Z,98.16
2023-01-25T18:21:24.070Z,98.12
2023-01-25T18:23:38.343Z,98.13
2023-01-25T18:25:50.880Z,98.22
2023-01-25T18:28:03.592Z,98.22
2023-01-25T18:30:49.466Z,98.40
2023-01-25T18:33:02.648Z,98.21
2023-01-25T18:35:15.231Z,98.46
2023-01-25T18:37:33.468Z,98.42
2023-01-25T18:39:51.466Z,98.17
2023-01-25T18:42:04.416Z,98.66
2023-01-25T18:44:17.018Z,98.65
2023-01-25T18:46:30.322Z,98.56
2023-01-25T18:48:45.409Z,98.78
2023-01-25T18:51:00.161Z,98.75
2023-01-25T18:53:12.674Z,98.84
2023-01-25T18:55:26.404Z,99.15
2023-01-25T18:57:39.580Z,99.34
2023-01-25T18:59:52.281Z,99.36
2023-01-25T19:02:05.278Z,99.35
2023-01-25T19:04:18.074Z,99.49
2023-01-25T19:06:30.634Z,99.52
2023-01-25T19:08:46.394Z,99.45
2023-01-25T19:11:05.940Z,99.57
2023-01-25T19:13:18.494Z,99.51
2023-01-25T19:15:31.030Z,99.46
2023-01-25T19:17:43.722Z,99.50
2023-01-25T19:19:56.309Z,99.44
2023-01-25T19:22:08.829Z,99.45
2023-01-25T19:24:21.409Z,99.57
2023-01-25T19:26:34.072Z,99.51
2023-01-25T19:28:47.531Z,99.72
2023-01-25T19:31:08.596Z,99.44
2023-01-25T19:33:21.296Z,99.44
2023-01-25T19:35:33.836Z,99.50
2023-01-25T19:37:46.464Z,99.60
2023-01-25T19:39:59.035Z,99.52
2023-01-25T19:42:11.580Z,99.50
2023-01-25T19:44:25.114Z,99.48
2023-01-25T19:46:38.162Z,99.58
2023-01-25T19:48:52.460Z,99.39
2023-01-25T19:51:08.774Z,99.73
2023-01-25T19:53:21.300Z,99.56
2023-01-25T19:55:33.919Z,99.93
2023-01-25T19:57:46.452Z,99.97
2023-01-25T19:59:59.056Z,99.99
2023-01-25T20:02:12.305Z,99.96
2023-01-25T20:04:25.142Z,99.99
2023-01-25T20:06:37.904Z,100.00
2023-01-25T20:08:51.509Z,100.00
2023-01-25T20:11:11.247Z,100.00
2023-01-25T20:13:23.807Z,100.00
2023-01-25T20:15:36.437Z,100.00
2023-01-25T20:17:48.972Z,100.00
2023-01-25T20:20:01.643Z,100.00
2023-01-25T20:22:14.321Z,100.00
2023-01-25T20:24:27.157Z,100.00
2023-01-25T20:26:42.900Z,100.00
2023-01-25T20:28:58.006Z,100.00
2023-01-25T20:31:33.814Z,100.00
2023-01-25T20:33:46.563Z,100.00
2023-01-25T20:36:04.101Z,100.00
2023-01-25T20:38:17.050Z,100.00
2023-01-25T20:40:29.627Z,100.00
2023-01-25T20:42:42.189Z,100.00
2023-01-25T20:44:54.745Z,100.00
2023-01-25T20:47:07.644Z,100.00
2023-01-25T20:49:20.282Z,100.00
2023-01-25T20:51:33.983Z,100.00
2023-01-25T20:53:47.607Z,100.00
2023-01-25T20:56:00.120Z,100.00
2023-01-25T20:58:12.631Z,100.00
2023-01-25T21:00:25.652Z,100.00
2023-01-25T21:02:38.890Z,100.00
2023-01-25T21:04:51.454Z,100.00
2023-01-25T21:07:04.034Z,100.00
2023-01-25T21:09:16.703Z,100.00
2023-01-25T21:11:29.613Z,100.00
2023-01-25T21:13:43.841Z,100.00
2023-01-25T21:16:21.938Z,100.00
2023-01-25T21:18:40.193Z,100.00
2023-01-25T21:20:52.750Z,100.00
2023-01-25T21:23:05.380Z,100.00
2023-01-25T21:25:17.974Z,100.00
2023-01-25T21:27:30.861Z,100.00
2023-01-25T21:29:43.467Z,100.00
2023-01-25T21:31:56.095Z,100.00
2023-01-25T21:34:09.871Z,100.00
2023-01-25T21:36:22.960Z,100.00
2023-01-25T21:38:36.339Z,100.00
2023-01-25T21:40:48.975Z,100.00
2023-01-25T21:43:01.572Z,100.00
2023-01-25T21:45:33.054Z,100.00
2023-01-25T21:47:45.612Z,100.00
2023-01-25T21:50:17.201Z,100.00
2023-01-25T21:52:29.797Z,100.00
2023-01-25T21:54:42.404Z,100.00
2023-01-25T21:56:56.671Z,100.00
2023-01-25T21:59:09.313Z,100.00
2023-01-25T22:01:22.658Z,100.00
2023-01-25T22:03:37.772Z,100.00
2023-01-25T22:05:54.812Z,100.00
2023-01-25T22:08:07.670Z,100.00
2023-01-25T22:10:20.361Z,100.00
2023-01-25T22:12:32.929Z,100.00
2023-01-25T22:14:45.517Z,100.00
2023-01-25T22:16:58.216Z,100.00
2023-01-25T22:19:11.155Z,100.00
2023-01-25T22:21:30.995Z,100.00
2023-01-25T22:23:44.716Z,100.00
2023-01-25T22:26:05.720Z,100.00
2023-01-25T22:28:19.447Z,100.00
2023-01-25T22:30:32.058Z,100.00
2023-01-25T22:32:44.686Z,100.00
2023-01-25T22:34:57.255Z,100.00
2023-01-25T22:37:12.927Z,100.00
2023-01-25T22:39:25.527Z,100.00
2023-01-25T22:41:38.896Z,100.00
2023-01-25T22:43:52.307Z,100.00
2023-01-25T22:46:06.414Z,100.00
2023-01-25T22:48:20.012Z,100.00
2023-01-25T22:50:33.015Z,100.00
2023-01-25T22:52:45.915Z,100.00
2023-01-25T22:54:58.501Z,100.00
2023-01-25T22:57:11.129Z,100.00
2023-01-25T22:59:23.689Z,100.00
2023-01-25T23:01:36.365Z,100.00
2023-01-25T23:03:49.544Z,100.00
2023-01-25T23:06:04.152Z,100.00
2023-01-25T23:08:16.676Z,100.00
2023-01-25T23:10:29.270Z,100.00
2023-01-25T23:12:41.865Z,100.00
2023-01-25T23:14:54.471Z,100.00
2023-01-25T23:17:25.915Z,100.00
2023-01-25T23:19:38.439Z,100.00
2023-01-25T23:21:51.004Z,100.00
2023-01-25T23:24:04.403Z,100.00
2023-01-25T23:26:17.619Z,100.00
2023-01-25T23:28:31.156Z,100.00
2023-01-25T23:30:43.781Z,100.00
2023-01-25T23:32:56.365Z,100.00
2023-01-25T23:35:09.208Z,100.00
2023-01-25T23:37:22.871Z,100.00
2023-01-25T23:39:35.540Z,100.00
2023-01-25T23:41:49.760Z,100.00
2023-01-25T23:44:02.346Z,100.00
2023-01-25T23:46:15.947Z,100.00
2023-01-25T23:48:28.681Z,100.00
2023-01-25T23:50:41.211Z,100.00
2023-01-25T23:52:53.770Z,100.00
2023-01-25T23:55:06.877Z,100.00
2023-01-25T23:57:20.132Z,100.00
2023-01-25T23:59:33.802Z,100.00
